Brownell, Kansas
Current Conditions -  °F | °C
As of 10:15 AM on Saturday 27 Dec 2014 (Local Time) from KHYS Reporting Station
Clear Clear  
Wind Chill:   Ceiling: Unl
Heat Index: 19°   Visibility: 10mi
Dew Point:   Wind: 14mph
Humidity: 58%   Direction: 310°NW
Pressure: 30.3"   Gusts: NA
Location:  38.64°N, 99.75°W
Report Text: KHYS 271615Z AUTO 31012KT 10SM CLR M07/M14 A3030 RMK AO1
Loading
Personal Weather Stations






























Interactive Weather Map New forecast layout! Learn more

10-Day Weather Forecast

Advertisements
Track Severe Weather on mobile